Time;durP1;ratioP1;P1;durP2;ratioP2;P2;SDS_P1;SDS_P2;PMS_P1;PMS_P2;Temp;Humidity;BMP_temperature;BMP_pressure;BME280_temperature;BME280_humidity;BME280_pressure;Samples;Min_cycle;Max_cycle;Signal;HPM_P1;HPM_P2
2021/03/05 00:01:06;;;;;;;1.80;1.70;;;24.50;51.40;;;;;;5072763;28;20792;-65
2021/03/05 00:03:34;;;;;;;1.40;1.10;;;24.50;51.40;;;;;;5072867;28;20494;-65
2021/03/05 00:06:00;;;;;;;1.63;1.53;;;24.50;51.50;;;;;;5072949;28;20934;-65
2021/03/05 00:08:27;;;;;;;1.47;1.10;;;24.50;51.40;;;;;;5072667;28;20448;-65
2021/03/05 00:10:53;;;;;;;1.43;1.10;;;24.50;51.20;;;;;;5072832;28;20447;-65
2021/03/05 00:13:22;;;;;;;1.50;1.40;;;24.50;51.30;;;;;;5072871;28;20953;-64
2021/03/05 00:15:48;;;;;;;1.50;1.40;;;24.50;51.40;;;;;;5072783;28;20805;-65
2021/03/05 00:18:19;;;;;;;1.17;1.00;;;24.50;51.30;;;;;;5072634;28;20844;-65
2021/03/05 00:20:48;;;;;;;1.87;1.30;;;24.60;51.30;;;;;;5072644;28;20504;-65
2021/03/05 00:23:15;;;;;;;1.20;1.10;;;24.50;51.30;;;;;;5074349;28;20479;-64
2021/03/05 00:25:42;;;;;;;1.93;1.23;;;24.50;51.30;;;;;;5076283;28;20446;-64
2021/03/05 00:28:08;;;;;;;1.10;1.00;;;24.50;51.20;;;;;;5076277;28;20457;-65
2021/03/05 00:30:34;;;;;;;1.13;1.03;;;24.40;51.20;;;;;;5076110;28;20463;-65
2021/03/05 00:33:04;;;;;;;1.33;1.13;;;24.50;51.20;;;;;;5075969;28;20448;-65
2021/03/05 00:35:31;;;;;;;1.50;1.30;;;24.40;51.20;;;;;;5076176;28;20440;-65
2021/03/05 00:37:57;;;;;;;1.30;1.00;;;24.50;51.30;;;;;;5076062;28;20447;-64
2021/03/05 00:40:24;;;;;;;1.10;0.90;;;24.50;51.20;;;;;;5076089;28;20452;-64
2021/03/05 00:42:51;;;;;;;1.90;1.13;;;24.40;51.20;;;;;;5076190;28;20482;-65
2021/03/05 00:45:19;;;;;;;1.50;1.33;;;24.50;51.30;;;;;;5075951;28;20447;-64
2021/03/05 00:47:45;;;;;;;1.73;1.20;;;24.50;51.40;;;;;;5075859;28;20495;-64
2021/03/05 00:50:13;;;;;;;1.37;1.10;;;24.40;51.30;;;;;;5075971;28;20519;-65
2021/03/05 00:52:40;;;;;;;1.10;1.00;;;24.50;51.40;;;;;;5075862;28;20443;-65
2021/03/05 00:55:08;;;;;;;1.10;0.93;;;24.40;51.30;;;;;;5075506;28;20466;-65
2021/03/05 00:57:35;;;;;;;1.33;1.23;;;24.40;51.30;;;;;;5075607;28;20439;-64
2021/03/05 01:00:03;;;;;;;1.20;1.10;;;24.40;51.20;;;;;;5075825;28;20453;-65
2021/03/05 01:02:29;;;;;;;1.20;1.00;;;24.40;51.30;;;;;;5075532;28;20487;-64
2021/03/05 01:04:55;;;;;;;1.23;1.13;;;24.40;51.40;;;;;;5075731;28;20436;-65
2021/03/05 01:07:21;;;;;;;1.40;1.03;;;24.50;51.40;;;;;;5075405;28;20441;-65
2021/03/05 01:09:49;;;;;;;1.17;0.90;;;24.50;51.40;;;;;;5075500;28;20459;-65
2021/03/05 01:12:15;;;;;;;1.57;1.20;;;24.40;51.40;;;;;;5075381;28;20940;-65
2021/03/05 01:14:42;;;;;;;1.30;1.20;;;24.40;51.40;;;;;;5075440;28;20477;-65
2021/03/05 01:17:08;;;;;;;1.17;1.00;;;24.40;51.30;;;;;;5075445;28;20436;-65
2021/03/05 01:19:34;;;;;;;1.30;1.20;;;24.40;51.30;;;;;;5075285;28;20433;-65
2021/03/05 01:22:00;;;;;;;1.10;0.90;;;24.40;51.30;;;;;;5075394;28;20484;-65
2021/03/05 01:24:27;;;;;;;1.17;1.00;;;24.40;51.30;;;;;;5075288;28;20990;-65
2021/03/05 01:26:54;;;;;;;1.37;1.27;;;24.40;51.30;;;;;;5075218;28;20775;-65
2021/03/05 01:29:20;;;;;;;1.40;1.13;;;24.40;51.20;;;;;;5075066;28;20447;-65
2021/03/05 01:31:46;;;;;;;1.37;1.27;;;24.40;51.20;;;;;;5074921;28;20464;-65
2021/03/05 01:34:13;;;;;;;1.23;1.13;;;24.50;51.30;;;;;;5074086;28;20444;-65
2021/03/05 01:36:39;;;;;;;1.10;0.93;;;24.40;51.20;;;;;;5075274;28;20446;-65
2021/03/05 01:39:06;;;;;;;1.30;1.20;;;24.40;51.20;;;;;;5075081;28;20508;-65
2021/03/05 01:41:33;;;;;;;1.20;1.10;;;24.40;51.20;;;;;;5074777;28;20807;-65
2021/03/05 01:44:00;;;;;;;1.20;1.10;;;24.40;51.90;;;;;;5074817;28;20484;-65
2021/03/05 01:46:30;;;;;;;1.50;1.37;;;24.40;51.20;;;;;;5074844;28;20439;-64
2021/03/05 01:48:56;;;;;;;1.30;1.20;;;24.40;51.20;;;;;;5074692;28;20443;-65
2021/03/05 01:51:25;;;;;;;1.40;1.20;;;24.40;51.10;;;;;;5074738;28;20947;-65
2021/03/05 01:53:51;;;;;;;1.10;1.00;;;24.40;51.10;;;;;;5074475;28;20476;-64
2021/03/05 01:56:32;;;;;;;1.20;1.10;;;24.40;51.10;;;;;;5074710;28;20448;-64
2021/03/05 01:59:00;;;;;;;1.37;1.27;;;24.40;51.30;;;;;;5074621;28;20961;-64
2021/03/05 02:01:27;;;;;;;1.23;1.13;;;24.40;51.30;;;;;;5074431;28;20467;-65
2021/03/05 02:03:54;;;;;;;1.30;1.10;;;24.40;51.20;;;;;;5074379;28;20497;-65
2021/03/05 02:06:20;;;;;;;1.23;1.13;;;24.40;51.20;;;;;;5074451;28;20501;-65
2021/03/05 02:08:47;;;;;;;1.30;1.20;;;24.40;51.20;;;;;;5074334;28;20795;-65
2021/03/05 02:11:16;;;;;;;1.40;1.30;;;24.40;51.40;;;;;;5074426;28;20445;-64
2021/03/05 02:13:42;;;;;;;1.30;1.10;;;24.40;51.10;;;;;;5074132;28;20446;-65
2021/03/05 02:16:20;;;;;;;1.30;1.20;;;24.40;51.10;;;;;;5074282;28;20447;-65
2021/03/05 02:18:57;;;;;;;1.10;1.00;;;24.40;51.20;;;;;;5074193;28;20435;-65
2021/03/05 02:22:05;;;;;;;1.13;1.03;;;24.40;51.10;;;;;;5074254;28;20539;-64
2021/03/05 02:25:06;;;;;;;1.30;1.10;;;24.40;51.20;;;;;;5063356;28;20487;-65
2021/03/05 02:27:57;;;;;;;1.40;1.30;;;24.30;51.70;;;;;;5074117;28;20447;-65
2021/03/05 02:30:42;;;;;;;1.60;1.23;;;24.30;51.10;;;;;;5074063;28;20797;-65
2021/03/05 02:33:18;;;;;;;1.33;1.17;;;24.30;51.00;;;;;;5074013;28;20455;-65
2021/03/05 02:35:46;;;;;;;1.40;1.27;;;24.30;50.90;;;;;;5074019;28;20528;-65
2021/03/05 02:38:15;;;;;;;1.20;1.10;;;24.30;50.90;;;;;;5073722;28;20436;-64
2021/03/05 02:40:43;;;;;;;1.70;1.30;;;24.30;50.90;;;;;;5073841;28;20926;-64
2021/03/05 02:43:12;;;;;;;1.27;1.17;;;24.30;50.90;;;;;;5073563;28;20480;-65
2021/03/05 02:45:41;;;;;;;1.30;1.20;;;24.30;50.90;;;;;;5073528;28;20458;-65
2021/03/05 02:48:12;;;;;;;1.40;1.30;;;24.30;50.90;;;;;;5073551;28;20485;-65
2021/03/05 02:50:42;;;;;;;1.23;1.13;;;24.30;51.00;;;;;;5073749;28;20957;-65
2021/03/05 02:56:32;;;;;;;1.30;1.20;;;24.30;50.80;;;;;;5064413;28;20487;-65
2021/03/05 02:59:01;;;;;;;1.30;1.20;;;24.30;50.90;;;;;;5073438;28;20764;-65
2021/03/05 03:01:27;;;;;;;1.23;1.13;;;24.30;50.90;;;;;;5073377;28;20517;-65
2021/03/05 03:03:56;;;;;;;1.20;1.10;;;24.30;50.90;;;;;;5073259;28;20519;-65
2021/03/05 03:06:24;;;;;;;1.30;1.20;;;24.30;50.90;;;;;;5073344;28;20445;-65
2021/03/05 03:08:53;;;;;;;1.20;1.10;;;24.30;50.80;;;;;;5073432;28;20443;-65
2021/03/05 03:11:20;;;;;;;1.20;1.10;;;24.30;50.80;;;;;;5073363;28;20827;-65
2021/03/05 03:13:47;;;;;;;1.13;1.00;;;24.30;50.70;;;;;;5073371;28;20874;-65
2021/03/05 03:16:17;;;;;;;1.00;0.90;;;24.30;50.80;;;;;;5073328;28;20440;-65
2021/03/05 03:18:45;;;;;;;1.43;1.33;;;24.30;50.70;;;;;;5073277;28;20474;-65
2021/03/05 03:21:13;;;;;;;1.30;1.20;;;24.30;50.80;;;;;;5073242;28;20777;-65
2021/03/05 03:23:40;;;;;;;1.30;1.20;;;24.30;50.70;;;;;;5073066;28;20480;-65
2021/03/05 03:26:07;;;;;;;1.23;1.13;;;24.30;50.70;;;;;;5073169;28;20444;-65
2021/03/05 03:28:35;;;;;;;1.10;1.00;;;24.30;50.70;;;;;;5073295;28;20509;-65
2021/03/05 03:31:04;;;;;;;1.10;1.00;;;24.30;50.70;;;;;;5073058;28;20468;-65
2021/03/05 03:33:31;;;;;;;1.20;1.10;;;24.30;50.70;;;;;;5073362;28;20538;-65
2021/03/05 03:36:01;;;;;;;1.00;0.90;;;24.30;50.70;;;;;;5072845;28;20926;-65
2021/03/05 03:38:30;;;;;;;1.30;1.20;;;24.30;50.60;;;;;;5073000;28;20455;-65
2021/03/05 03:40:57;;;;;;;1.20;1.03;;;24.30;50.60;;;;;;5073139;28;20862;-65
2021/03/05 03:43:23;;;;;;;1.10;1.00;;;24.30;50.70;;;;;;5073054;28;20484;-64
2021/03/05 03:45:49;;;;;;;1.33;1.23;;;24.30;50.70;;;;;;5073172;28;20474;-65
2021/03/05 03:48:16;;;;;;;1.10;1.00;;;24.30;50.70;;;;;;5073015;28;20841;-65
2021/03/05 03:50:47;;;;;;;1.10;1.00;;;24.30;50.70;;;;;;5073227;28;20455;-64
2021/03/05 03:53:16;;;;;;;1.23;1.13;;;24.30;50.60;;;;;;5072894;28;20444;-65
2021/03/05 03:55:44;;;;;;;1.17;1.07;;;24.30;50.70;;;;;;5072590;28;20534;-65
2021/03/05 03:58:11;;;;;;;1.20;0.90;;;24.30;50.70;;;;;;5074649;28;20446;-65
2021/03/05 04:00:38;;;;;;;1.20;1.10;;;24.30;50.60;;;;;;5076688;28;20475;-64
2021/03/05 04:03:06;;;;;;;1.00;0.83;;;24.30;50.50;;;;;;5076825;28;20471;-65
2021/03/05 04:05:37;;;;;;;1.00;0.90;;;24.30;50.60;;;;;;5076506;28;20440;-65
2021/03/05 04:08:05;;;;;;;1.13;1.00;;;24.30;50.50;;;;;;5076828;28;20849;-65
2021/03/05 04:10:31;;;;;;;1.00;0.90;;;24.30;50.40;;;;;;5076545;28;20448;-65
2021/03/05 04:12:59;;;;;;;1.00;0.90;;;24.30;50.40;;;;;;5076565;28;20443;-65
2021/03/05 04:15:25;;;;;;;1.00;0.90;;;24.30;50.40;;;;;;5076413;28;20447;-65
2021/03/05 04:17:52;;;;;;;1.00;0.80;;;24.40;50.50;;;;;;5076613;28;20436;-65
2021/03/05 04:20:24;;;;;;;1.00;0.90;;;24.30;50.50;;;;;;5076505;28;20816;-65
2021/03/05 04:22:52;;;;;;;0.97;0.80;;;24.30;50.30;;;;;;5076390;28;20593;-65
2021/03/05 04:25:18;;;;;;;1.00;0.80;;;24.30;50.30;;;;;;5076409;28;20502;-65
2021/03/05 04:27:44;;;;;;;0.90;0.80;;;24.30;50.30;;;;;;5076208;28;20439;-65
2021/03/05 04:30:13;;;;;;;1.00;0.90;;;24.30;50.30;;;;;;5076303;28;20442;-65
2021/03/05 04:32:41;;;;;;;1.03;0.90;;;24.40;50.20;;;;;;5076086;28;20454;-65
2021/03/05 04:35:08;;;;;;;0.93;0.70;;;24.30;50.20;;;;;;5076296;28;20807;-65
2021/03/05 04:37:35;;;;;;;1.10;0.97;;;24.40;50.20;;;;;;5076221;28;20927;-65
2021/03/05 04:40:03;;;;;;;1.10;0.80;;;24.30;50.10;;;;;;5076060;28;20794;-65
2021/03/05 04:42:29;;;;;;;1.10;0.90;;;24.40;50.10;;;;;;5075860;28;20443;-65
2021/03/05 04:44:55;;;;;;;1.00;0.87;;;24.30;50.10;;;;;;5076100;28;20438;-65
2021/03/05 04:47:22;;;;;;;1.00;0.70;;;24.30;50.00;;;;;;5075999;28;20447;-65
2021/03/05 04:49:48;;;;;;;1.00;0.80;;;24.30;49.90;;;;;;5076018;28;20802;-65
2021/03/05 04:52:14;;;;;;;1.10;1.00;;;24.30;50.00;;;;;;5075825;28;20439;-65
2021/03/05 04:54:41;;;;;;;1.00;0.80;;;24.30;50.00;;;;;;5075778;28;20451;-65
2021/03/05 04:57:07;;;;;;;1.00;0.90;;;24.30;50.00;;;;;;5075697;28;20464;-65
2021/03/05 04:59:35;;;;;;;0.90;0.60;;;24.30;49.90;;;;;;5075660;28;20445;-65
2021/03/05 05:02:04;;;;;;;1.00;0.73;;;24.30;49.80;;;;;;5075878;28;20962;-65
2021/03/05 05:04:31;;;;;;;1.27;0.90;;;24.30;49.80;;;;;;5075600;28;20479;-65
2021/03/05 05:06:57;;;;;;;0.93;0.80;;;24.30;49.80;;;;;;5075481;28;20442;-65
2021/03/05 05:09:23;;;;;;;1.00;0.90;;;24.30;49.90;;;;;;5074194;28;20444;-65
2021/03/05 05:11:50;;;;;;;0.90;0.70;;;24.30;49.80;;;;;;5075547;28;20449;-65
2021/03/05 05:14:16;;;;;;;0.80;0.60;;;24.30;49.80;;;;;;5075352;28;20498;-65
2021/03/05 05:16:43;;;;;;;0.97;0.73;;;24.30;49.70;;;;;;5075330;28;20440;-65
2021/03/05 05:19:09;;;;;;;1.00;0.80;;;24.30;49.60;;;;;;5075550;28;20931;-65
2021/03/05 05:21:37;;;;;;;0.97;0.80;;;24.30;49.60;;;;;;5075295;28;20509;-65
2021/03/05 05:24:04;;;;;;;1.00;0.70;;;24.30;49.50;;;;;;5078743;28;20475;-66
2021/03/05 05:26:31;;;;;;;0.97;0.83;;;24.30;49.70;;;;;;5092494;28;20450;-65
2021/03/05 05:28:57;;;;;;;1.00;0.90;;;24.30;49.50;;;;;;5095360;28;20459;-65
2021/03/05 05:31:23;;;;;;;1.00;0.80;;;24.30;49.50;;;;;;5095290;28;20455;-65
2021/03/05 05:33:49;;;;;;;1.00;0.83;;;24.30;49.50;;;;;;5095256;28;20491;-65
2021/03/05 05:36:15;;;;;;;0.90;0.70;;;24.30;49.50;;;;;;5083403;28;20466;-65
2021/03/05 05:38:43;;;;;;;1.10;0.80;;;24.30;49.40;;;;;;5083278;28;20432;-65
2021/03/05 05:41:09;;;;;;;1.00;0.90;;;24.30;50.00;;;;;;5095240;28;20512;-65
2021/03/05 05:43:35;;;;;;;1.00;0.83;;;24.30;49.40;;;;;;5094642;28;20875;-64
2021/03/05 05:46:04;;;;;;;4.50;1.10;;;24.30;49.50;;;;;;5094957;28;20450;-65
2021/03/05 05:48:30;;;;;;;1.10;1.00;;;24.30;49.50;;;;;;5094968;28;20446;-66
2021/03/05 05:50:58;;;;;;;2.03;1.03;;;24.30;49.90;;;;;;5095012;28;20440;-65
2021/03/05 05:53:31;;;;;;;1.10;0.90;;;24.30;50.10;;;;;;5094990;28;20450;-65
2021/03/05 05:55:59;;;;;;;1.87;0.97;;;24.30;50.40;;;;;;5094847;28;20479;-64
2021/03/05 05:58:27;;;;;;;1.80;1.03;;;24.30;50.50;;;;;;5094884;28;20439;-65
2021/03/05 06:00:55;;;;;;;1.60;1.00;;;24.30;50.40;;;;;;5094843;28;20463;-64
2021/03/05 06:03:25;;;;;;;1.90;1.00;;;24.30;50.40;;;;;;5094620;28;20478;-64
2021/03/05 06:05:52;;;;;;;1.93;0.90;;;24.20;50.30;;;;;;5094634;28;20451;-65
2021/03/05 06:08:19;;;;;;;1.60;1.00;;;24.20;50.20;;;;;;5094592;28;20921;-65
2021/03/05 06:10:45;;;;;;;1.00;0.87;;;24.20;50.20;;;;;;5094548;28;20487;-65
2021/03/05 06:13:13;;;;;;;1.70;0.77;;;24.20;50.30;;;;;;5094691;28;20762;-65
2021/03/05 06:15:39;;;;;;;1.10;0.90;;;24.30;50.40;;;;;;5094688;28;20780;-65
2021/03/05 06:18:07;;;;;;;1.37;0.80;;;24.20;50.20;;;;;;5094415;28;20461;-65
2021/03/05 06:20:45;;;;;;;1.77;0.90;;;24.20;50.20;;;;;;5093956;28;20446;-65
2021/03/05 06:23:13;;;;;;;1.00;0.80;;;24.30;50.20;;;;;;5094383;28;20474;-65
2021/03/05 06:25:40;;;;;;;1.10;0.70;;;24.20;50.20;;;;;;5094353;28;20956;-65
2021/03/05 06:28:18;;;;;;;1.17;1.00;;;24.20;50.20;;;;;;5094195;28;20442;-64
2021/03/05 06:30:44;;;;;;;1.67;0.83;;;24.20;50.10;;;;;;5094078;28;20549;-65
2021/03/05 06:33:27;;;;;;;1.20;0.80;;;24.20;50.30;;;;;;5094228;28;20450;-65
2021/03/05 06:35:54;;;;;;;1.07;0.80;;;24.20;50.30;;;;;;5085038;28;20431;-65
2021/03/05 06:38:43;;;;;;;0.90;0.80;;;24.20;50.30;;;;;;5083351;28;20928;-64
2021/03/05 06:41:21;;;;;;;1.20;0.80;;;24.40;50.40;;;;;;5072319;28;20433;-66
2021/03/05 06:43:49;;;;;;;5.73;1.03;;;24.20;50.20;;;;;;5072168;28;20479;-66
2021/03/05 06:46:33;;;;;;;2.10;0.90;;;24.20;50.20;;;;;;5073318;28;20432;-65
2021/03/05 06:49:01;;;;;;;2.10;1.00;;;24.20;50.40;;;;;;5073645;28;20500;-65
2021/03/05 06:51:28;;;;;;;2.00;0.90;;;24.20;50.30;;;;;;5073686;28;20444;-65
2021/03/05 06:54:03;;;;;;;1.40;1.00;;;24.20;50.20;;;;;;5073555;28;20439;-65
2021/03/05 06:56:30;;;;;;;1.30;0.90;;;24.20;50.50;;;;;;5073253;28;20478;-65
2021/03/05 06:59:02;;;;;;;1.17;0.80;;;24.20;50.50;;;;;;5073718;28;20451;-65
2021/03/05 07:01:29;;;;;;;14.43;1.67;;;24.20;50.40;;;;;;5073473;28;20513;-65
2021/03/05 07:04:10;;;;;;;38.40;5.23;;;24.20;50.50;;;;;;5073562;28;20486;-65
2021/03/05 07:06:36;;;;;;;41.83;4.50;;;24.20;50.90;;;;;;5073311;28;20499;-65
2021/03/05 07:09:05;;;;;;;87.30;8.10;;;24.20;51.00;;;;;;5073418;28;20436;-65
2021/03/05 07:11:40;;;;;;;39.10;6.80;;;24.20;51.10;;;;;;5073254;28;20439;-66
2021/03/05 07:14:09;;;;;;;62.50;6.93;;;24.30;51.20;;;;;;5073555;28;20438;-65
2021/03/05 07:16:40;;;;;;;88.60;7.83;;;24.20;50.90;;;;;;5073161;28;20992;-66
2021/03/05 07:19:06;;;;;;;97.47;10.00;;;24.20;51.10;;;;;;5073359;28;20442;-66
2021/03/05 07:21:38;;;;;;;123.47;11.17;;;24.20;51.30;;;;;;5073045;28;20446;-66
2021/03/05 07:24:06;;;;;;;117.27;11.00;;;24.30;51.60;;;;;;5073125;28;20490;-66
2021/03/05 07:26:35;;;;;;;96.37;9.33;;;24.20;51.50;;;;;;5073005;28;20867;-66
2021/03/05 07:29:03;;;;;;;87.70;9.90;;;24.20;51.40;;;;;;5073156;28;20467;-66
2021/03/05 07:31:32;;;;;;;92.90;10.27;;;24.30;51.40;;;;;;5072883;28;20474;-66
2021/03/05 07:34:01;;;;;;;76.27;7.23;;;24.30;51.30;;;;;;5072606;28;20446;-66
2021/03/05 07:36:31;;;;;;;43.13;6.70;;;24.20;51.10;;;;;;5073083;28;20504;-67
2021/03/05 07:39:03;;;;;;;83.40;6.23;;;24.20;50.50;;;;;;5073078;28;20795;-66
2021/03/05 07:41:31;;;;;;;65.43;7.83;;;24.20;50.30;;;;;;5073219;28;20945;-66
2021/03/05 07:43:58;;;;;;;45.33;6.37;;;24.20;50.70;;;;;;5072976;28;20501;-67
2021/03/05 07:46:25;;;;;;;49.73;5.93;;;24.20;50.70;;;;;;5072766;28;20495;-66
2021/03/05 07:48:52;;;;;;;54.63;6.33;;;24.20;50.70;;;;;;5072929;28;20446;-66
2021/03/05 07:51:20;;;;;;;34.07;5.57;;;24.30;50.70;;;;;;5072960;28;20435;-66
2021/03/05 07:53:49;;;;;;;39.20;5.17;;;24.20;50.60;;;;;;5072987;28;20496;-66
2021/03/05 07:56:44;;;;;;;33.37;4.70;;;24.20;50.20;;;;;;5072680;28;20462;-65
2021/03/05 07:59:11;;;;;;;50.47;5.33;;;24.20;49.80;;;;;;5072907;28;20526;-66
2021/03/05 08:01:57;;;;;;;32.40;5.10;;;24.20;50.10;;;;;;5072894;28;20461;-66
2021/03/05 08:04:24;;;;;;;35.27;5.80;;;24.30;50.40;;;;;;5072625;28;20491;-66
2021/03/05 08:07:09;;;;;;;28.93;4.83;;;24.20;50.40;;;;;;5072584;28;20444;-67
2021/03/05 08:09:38;;;;;;;42.23;5.80;;;24.20;50.40;;;;;;5073084;28;20448;-66
2021/03/05 08:12:41;;;;;;;25.90;5.20;;;24.20;50.40;;;;;;5072735;28;20447;-66
2021/03/05 08:15:23;;;;;;;23.63;5.03;;;24.20;50.30;;;;;;5011085;28;20944;-66
2021/03/05 08:18:02;;;;;;;32.30;6.70;;;24.20;49.90;;;;;;5010993;28;20930;-66
2021/03/05 08:20:52;;;;;;;23.80;5.97;;;24.20;50.10;;;;;;5052103;28;20500;-67
2021/03/05 08:23:19;;;;;;;34.50;6.73;;;24.20;50.30;;;;;;5072839;28;20477;-66
2021/03/05 08:25:51;;;;;;;18.80;6.80;;;24.20;50.20;;;;;;5072649;28;20444;-67
2021/03/05 08:28:42;;;;;;;40.70;12.63;;;24.20;50.40;;;;;;5072548;28;20440;-67
2021/03/05 08:31:34;;;;;;;54.87;20.00;;;24.20;50.70;;;;;;5072609;28;20464;-67
2021/03/05 08:34:26;;;;;;;41.33;12.60;;;24.30;51.50;;;;;;5072645;28;20447;-66
2021/03/05 08:36:54;;;;;;;40.73;14.37;;;24.30;51.40;;;;;;5072501;28;20440;-66
2021/03/05 08:39:29;;;;;;;53.33;15.67;;;24.30;51.30;;;;;;5072406;28;20444;-66
2021/03/05 08:42:35;;;;;;;34.00;13.87;;;24.30;51.20;;;;;;5072437;28;20504;-67
2021/03/05 08:45:12;;;;;;;36.70;15.67;;;24.40;51.40;;;;;;5075428;28;20543;-66
2021/03/05 08:47:41;;;;;;;42.63;16.40;;;24.40;51.50;;;;;;5075794;28;20447;-67
2021/03/05 08:50:09;;;;;;;46.07;18.43;;;24.40;51.60;;;;;;5075918;28;20447;-67
2021/03/05 08:52:39;;;;;;;51.40;17.57;;;24.40;51.60;;;;;;5075880;28;20448;-67
2021/03/05 08:55:07;;;;;;;43.50;18.27;;;24.50;51.80;;;;;;5075611;28;20497;-67
2021/03/05 08:57:44;;;;;;;42.73;15.30;;;24.50;51.90;;;;;;5075889;28;20494;-67
2021/03/05 09:00:14;;;;;;;43.80;16.70;;;24.50;51.70;;;;;;5075683;28;20810;-67
2021/03/05 09:02:42;;;;;;;32.17;17.87;;;24.50;51.70;;;;;;5075700;28;20490;-67
2021/03/05 09:05:09;;;;;;;34.07;14.03;;;24.50;52.00;;;;;;5075573;28;20487;-67
2021/03/05 09:07:47;;;;;;;36.83;17.50;;;24.50;51.80;;;;;;5075563;28;20444;-67
2021/03/05 09:10:14;;;;;;;33.87;14.80;;;24.60;52.10;;;;;;5075535;28;20439;-66
2021/03/05 09:12:54;;;;;;;40.67;16.47;;;24.60;52.00;;;;;;5075575;28;20455;-65
2021/03/05 09:15:23;;;;;;;41.47;16.10;;;24.60;52.00;;;;;;5075590;28;20440;-67
2021/03/05 09:17:50;;;;;;;32.83;15.10;;;24.60;51.80;;;;;;5075550;28;20531;-65
2021/03/05 09:20:17;;;;;;;41.63;15.90;;;24.70;51.80;;;;;;5075541;28;20441;-65
2021/03/05 09:22:43;;;;;;;41.93;17.73;;;24.70;51.80;;;;;;5075378;28;20447;-65
2021/03/05 09:25:11;;;;;;;29.30;15.97;;;24.70;52.10;;;;;;5075384;28;20487;-65
2021/03/05 09:27:39;;;;;;;36.83;16.50;;;24.70;52.20;;;;;;5075174;28;20446;-65
2021/03/05 09:30:17;;;;;;;31.83;16.80;;;24.70;52.30;;;;;;5075599;28;20491;-64
2021/03/05 09:32:50;;;;;;;35.30;16.53;;;24.70;53.10;;;;;;5075253;28;20429;-67
2021/03/05 09:35:22;;;;;;;28.80;15.40;;;24.70;53.30;;;;;;5075081;28;20443;-67
2021/03/05 09:37:48;;;;;;;23.40;14.60;;;24.70;53.40;;;;;;5075027;28;20436;-67
2021/03/05 09:40:16;;;;;;;22.90;13.90;;;24.70;53.10;;;;;;5075018;28;20439;-68
2021/03/05 09:42:44;;;;;;;26.97;14.20;;;24.70;53.20;;;;;;5074857;28;20441;-68
2021/03/05 09:45:12;;;;;;;21.13;13.37;;;24.80;53.50;;;;;;5074844;28;20488;-67
2021/03/05 09:47:48;;;;;;;25.53;11.70;;;24.70;53.40;;;;;;5074755;28;20447;-67
2021/03/05 09:50:22;;;;;;;18.03;11.33;;;24.90;53.20;;;;;;5074881;28;20799;-67
2021/03/05 09:52:49;;;;;;;20.93;10.97;;;24.70;53.40;;;;;;5075000;28;20768;-65
2021/03/05 09:55:27;;;;;;;29.10;11.57;;;24.70;53.30;;;;;;5074009;28;20436;-66
2021/03/05 09:57:54;;;;;;;21.57;9.67;;;24.80;53.80;;;;;;5074617;28;20443;-67
2021/03/05 10:00:32;;;;;;;20.10;10.10;;;24.80;53.40;;;;;;5074486;28;20793;-66
2021/03/05 10:03:05;;;;;;;21.67;8.80;;;24.80;53.10;;;;;;5074529;28;20448;-67
2021/03/05 10:05:33;;;;;;;23.90;8.43;;;24.80;52.90;;;;;;5074549;28;20443;-67
2021/03/05 10:07:59;;;;;;;14.07;7.97;;;24.80;52.80;;;;;;5074506;28;20444;-67
2021/03/05 10:10:27;;;;;;;20.23;9.07;;;24.80;52.80;;;;;;5074347;28;20440;-67
2021/03/05 10:12:53;;;;;;;12.13;7.57;;;24.80;52.70;;;;;;5074344;28;20439;-67
2021/03/05 10:15:20;;;;;;;11.83;7.53;;;24.80;52.50;;;;;;5074293;28;20505;-67
2021/03/05 10:17:47;;;;;;;15.40;8.10;;;24.80;52.40;;;;;;5074205;28;20436;-67
2021/03/05 10:20:14;;;;;;;10.30;7.23;;;24.80;52.40;;;;;;5074290;28;20444;-67
2021/03/05 10:22:41;;;;;;;12.33;6.83;;;24.80;52.40;;;;;;5074162;28;20443;-66
2021/03/05 10:25:11;;;;;;;12.83;6.73;;;24.80;52.30;;;;;;5074252;28;20491;-67
2021/03/05 10:27:42;;;;;;;10.80;6.83;;;24.80;52.30;;;;;;5074344;28;20455;-66
2021/03/05 10:30:09;;;;;;;13.77;7.03;;;24.80;52.30;;;;;;5073811;28;20452;-67
2021/03/05 10:32:39;;;;;;;15.13;6.70;;;24.80;52.30;;;;;;5073918;28;20476;-68
2021/03/05 10:35:09;;;;;;;9.73;5.97;;;24.70;52.30;;;;;;5073911;28;20868;-68
2021/03/05 10:37:36;;;;;;;10.80;6.10;;;24.80;51.90;;;;;;5074061;28;20436;-68
2021/03/05 10:40:03;;;;;;;11.33;6.70;;;24.80;51.50;;;;;;5073828;28;20444;-68
2021/03/05 10:42:30;;;;;;;14.20;6.50;;;24.70;51.40;;;;;;5073716;28;21040;-68
2021/03/05 10:44:57;;;;;;;6.57;5.00;;;24.80;52.20;;;;;;5073550;28;20479;-68
2021/03/05 10:47:24;;;;;;;11.43;6.73;;;24.80;52.10;;;;;;5073555;28;20440;-68
2021/03/05 10:49:50;;;;;;;11.37;6.47;;;24.80;51.90;;;;;;5073503;28;20437;-68
2021/03/05 10:52:19;;;;;;;9.07;4.77;;;24.80;51.90;;;;;;5073337;28;20523;-68
2021/03/05 10:54:46;;;;;;;18.97;5.10;;;24.80;51.60;;;;;;5073836;28;20436;-68
2021/03/05 10:57:13;;;;;;;9.03;5.27;;;24.80;51.40;;;;;;5073451;28;20491;-68
2021/03/05 10:59:40;;;;;;;7.93;4.90;;;24.80;51.30;;;;;;5073260;28;20531;-68
2021/03/05 11:02:08;;;;;;;10.23;5.63;;;24.80;51.30;;;;;;5073558;28;20443;-68
2021/03/05 11:04:34;;;;;;;7.10;5.17;;;24.80;51.30;;;;;;5073476;28;20483;-68
2021/03/05 11:07:02;;;;;;;4.77;4.20;;;24.80;51.10;;;;;;5073281;28;20444;-68
2021/03/05 11:09:29;;;;;;;7.63;4.63;;;24.80;50.70;;;;;;5073397;28;20444;-68
2021/03/05 11:11:56;;;;;;;10.40;4.40;;;24.80;50.80;;;;;;5073558;28;20445;-68
2021/03/05 11:14:23;;;;;;;7.03;4.83;;;24.70;50.80;;;;;;5073398;28;20444;-68
2021/03/05 11:16:50;;;;;;;10.90;5.80;;;24.80;50.90;;;;;;5073166;28;20440;-68
2021/03/05 11:19:17;;;;;;;9.37;4.57;;;24.80;50.90;;;;;;5073190;28;20806;-68
2021/03/05 11:21:44;;;;;;;8.07;4.87;;;24.80;51.30;;;;;;5073170;28;20486;-68
2021/03/05 11:24:11;;;;;;;8.97;4.40;;;24.80;51.20;;;;;;5073166;28;20481;-68
2021/03/05 11:26:37;;;;;;;9.60;5.47;;;24.80;51.40;;;;;;5072896;28;20922;-68
2021/03/05 11:29:05;;;;;;;7.40;4.80;;;24.80;51.50;;;;;;5073198;28;20440;-68
2021/03/05 11:31:31;;;;;;;6.67;4.40;;;24.80;51.40;;;;;;5073112;28;20468;-68
2021/03/05 11:33:58;;;;;;;5.23;3.60;;;24.80;51.30;;;;;;5073101;28;20446;-68
2021/03/05 11:36:25;;;;;;;5.50;4.17;;;24.80;51.20;;;;;;5073077;28;20442;-68
2021/03/05 11:38:52;;;;;;;8.80;4.67;;;24.80;51.90;;;;;;5073091;28;20534;-68
2021/03/05 11:41:19;;;;;;;6.87;4.60;;;24.80;51.00;;;;;;5073106;28;20452;-67
2021/03/05 11:43:48;;;;;;;18.80;7.50;;;24.80;50.70;;;;;;5072823;28;20483;-67
2021/03/05 11:46:16;;;;;;;14.50;6.90;;;24.80;50.80;;;;;;5072918;28;20455;-68
2021/03/05 11:48:42;;;;;;;16.70;9.10;;;24.80;51.00;;;;;;5072897;28;20787;-67
2021/03/05 11:51:09;;;;;;;19.73;12.47;;;24.80;51.20;;;;;;5072927;28;20514;-70
2021/03/05 11:53:36;;;;;;;18.93;12.37;;;24.80;51.20;;;;;;5072886;28;20455;-70
2021/03/05 11:56:03;;;;;;;16.13;10.30;;;24.80;51.40;;;;;;5072652;28;20468;-67
2021/03/05 11:58:29;;;;;;;18.20;11.43;;;24.80;51.50;;;;;;5073023;28;20448;-66
2021/03/05 12:00:56;;;;;;;19.00;12.13;;;24.80;51.80;;;;;;5074672;28;20503;-72
2021/03/05 12:03:22;;;;;;;18.80;10.40;;;24.80;51.90;;;;;;5088483;28;20475;-72
2021/03/05 12:05:48;;;;;;;15.57;10.87;;;24.80;52.70;;;;;;5092074;28;20451;-73
2021/03/05 12:08:15;;;;;;;18.60;13.37;;;24.80;52.10;;;;;;5092405;28;20529;-70
2021/03/05 12:10:42;;;;;;;18.17;11.57;;;24.90;52.30;;;;;;5092727;28;20443;-71
2021/03/05 12:13:10;;;;;;;25.13;13.90;;;24.90;52.30;;;;;;5092965;28;20436;-70
2021/03/05 12:15:37;;;;;;;17.93;14.00;;;24.90;52.50;;;;;;5092558;28;20447;-69
2021/03/05 12:18:03;;;;;;;20.80;13.20;;;24.90;52.50;;;;;;5092615;28;20451;-71
2021/03/05 12:20:29;;;;;;;22.93;15.10;;;24.90;52.40;;;;;;5096570;28;20435;-69
2021/03/05 12:22:56;;;;;;;22.33;12.90;;;25.00;52.60;;;;;;5096627;28;20772;-73
2021/03/05 12:25:22;;;;;;;28.03;15.30;;;25.00;52.80;;;;;;5096337;28;20487;-69
2021/03/05 12:27:49;;;;;;;43.83;24.70;;;25.00;53.00;;;;;;5096283;28;20432;-70
2021/03/05 12:30:16;;;;;;;31.73;19.07;;;25.00;53.20;;;;;;5096226;28;20451;-71
2021/03/05 12:32:44;;;;;;;40.50;24.13;;;25.00;52.90;;;;;;5096447;28;20450;-75
2021/03/05 12:35:15;;;;;;;29.93;18.83;;;25.00;53.20;;;;;;5090599;28;20463;-74
2021/03/05 12:37:43;;;;;;;36.20;19.97;;;25.00;52.80;;;;;;5075694;28;20526;-70
2021/03/05 12:40:12;;;;;;;28.40;19.30;;;25.00;53.00;;;;;;5076277;28;20455;-70
2021/03/05 12:42:38;;;;;;;39.27;24.17;;;25.00;53.00;;;;;;5076230;28;20532;-70
2021/03/05 12:45:08;;;;;;;39.70;22.60;;;25.00;53.30;;;;;;5076510;28;20495;-70
2021/03/05 12:47:35;;;;;;;37.93;23.90;;;25.00;53.30;;;;;;5076438;28;20444;-70
2021/03/05 12:50:03;;;;;;;35.00;19.60;;;25.00;53.50;;;;;;5076472;28;20448;-69
2021/03/05 12:52:29;;;;;;;34.93;18.33;;;25.00;53.10;;;;;;5075970;28;20949;-70
2021/03/05 12:54:55;;;;;;;36.37;20.00;;;25.00;52.80;;;;;;5076485;28;21005;-69